Time,TemperatureF,DewpointF,PressureIn,WindDirection,WindDirectionDegrees,WindSpeedMPH,WindSpeedGustMPH,Humidity,HourlyPrecipIn,Conditions,Clouds,dailyrainin,SoftwareType,DateUTC
2013-09-04 00:01:00,76.3,74.2,29.95,SW,222,0.0,4.2,93,0.00, ,,-99.99,VWS V12.07,2013-09-04 04:01:00,
2013-09-04 00:03:00,76.1,73.9,29.95,SW,218,5.5,7.1,93,0.00, ,,-99.99,VWS V12.07,2013-09-04 04:03:00,
2013-09-04 00:06:00,76.5,73.9,29.95,WSW,237,6.1,9.3,92,0.00, ,,-99.99,VWS V12.07,2013-09-04 04:06:00,
2013-09-04 00:09:00,75.8,73.2,29.95,WSW,244,4.9,9.3,92,0.00, ,,-99.99,VWS V12.07,2013-09-04 04:09:00,
2013-09-04 00:14:00,76.1,73.1,29.95,WSW,237,4.5,9.3,90,0.00, ,,-99.99,VWS V12.07,2013-09-04 04:14:00,
2013-09-04 00:19:00,76.5,73.1,29.95,WSW,254,6.3,9.4,89,0.00, ,,-99.99,VWS V12.07,2013-09-04 04:19:00,
2013-09-04 00:24:00,76.7,73.3,29.95,SW,235,0.0,7.5,89,0.00, ,,-99.99,VWS V12.07,2013-09-04 04:24:00,
2013-09-04 00:29:00,76.5,72.6,29.95,WSW,247,5.7,8.3,88,0.00, ,,-99.99,VWS V12.07,2013-09-04 04:29:00,
2013-09-04 00:34:00,76.1,71.5,29.95,WSW,243,4.2,8.7,86,0.00, ,,-99.99,VWS V12.07,2013-09-04 04:34:00,
2013-09-04 00:39:00,76.5,71.8,29.95,West,261,4.7,8.7,85,0.00, ,,-99.99,VWS V12.07,2013-09-04 04:39:00,
2013-09-04 00:44:00,76.4,71.4,29.95,WSW,244,3.2,7.6,85,0.00, ,,-99.99,VWS V12.07,2013-09-04 04:44:00,
2013-09-04 00:49:00,76.9,71.8,29.95,West,267,0.0,7.6,84,0.00, ,,-99.99,VWS V12.07,2013-09-04 04:49:00,
2013-09-04 00:54:00,77.0,72.1,29.95,West,267,0.0,7.6,85,0.00, ,,-99.99,VWS V12.07,2013-09-04 04:54:00,
2013-09-04 00:59:00,76.9,71.9,29.96,West,267,0.0,7.6,85,0.00, ,,-99.99,VWS V12.07,2013-09-04 04:59:00,
2013-09-04 01:04:00,77.0,71.8,29.96,West,267,0.0,0.0,84,0.00, ,,-99.99,VWS V12.07,2013-09-04 05:04:00,
2013-09-04 01:09:00,76.1,71.2,29.96,West,267,0.0,0.0,85,0.00, ,,-99.99,VWS V12.07,2013-09-04 05:09:00,
2013-09-04 01:14:00,76.3,71.6,29.96,West,267,0.0,0.0,85,0.00, ,,-99.99,VWS V12.07,2013-09-04 05:14:00,
2013-09-04 01:19:00,75.9,71.4,29.96,West,267,0.0,0.0,86,0.00, ,,-99.99,VWS V12.07,2013-09-04 05:19:00,
2013-09-04 01:24:00,76.4,72.1,29.97,West,267,0.0,0.0,87,0.00, ,,-99.99,VWS V12.07,2013-09-04 05:24:00,
2013-09-04 01:29:00,76.1,71.8,29.97,West,267,0.0,0.0,86,0.00, ,,-99.99,VWS V12.07,2013-09-04 05:29:00,
2013-09-04 01:34:00,75.9,71.8,29.97,West,267,0.0,0.0,87,0.00, ,,-99.99,VWS V12.07,2013-09-04 05:34:00,
2013-09-04 01:39:00,75.7,72.0,29.97,West,267,0.0,0.0,88,0.00, ,,-99.99,VWS V12.07,2013-09-04 05:39:00,
2013-09-04 01:44:00,76.1,72.8,29.97,West,267,0.0,0.0,89,0.00, ,,-99.99,VWS V12.07,2013-09-04 05:44:00,
2013-09-04 01:49:00,75.7,72.6,29.97,West,267,0.0,0.0,90,0.00, ,,-99.99,VWS V12.07,2013-09-04 05:49:00,
2013-09-04 01:54:00,75.9,73.2,29.97,West,267,0.0,0.0,91,0.00, ,,-99.99,VWS V12.07,2013-09-04 05:54:00,
2013-09-04 01:59:00,75.8,73.2,29.97,West,267,0.0,0.0,92,0.00, ,,-99.99,VWS V12.07,2013-09-04 05:59:00,
2013-09-04 02:04:00,75.7,73.2,29.96,West,267,0.0,0.0,92,0.00, ,,-99.99,VWS V12.07,2013-09-04 06:04:00,
2013-09-04 02:09:00,75.5,73.3,29.96,West,267,0.0,1.8,93,0.00, ,,-99.99,VWS V12.07,2013-09-04 06:09:00,
2013-09-04 02:14:00,75.3,73.0,29.96,West,267,0.0,1.8,93,0.00, ,,-99.99,VWS V12.07,2013-09-04 06:14:00,
2013-09-04 02:19:00,75.3,73.1,29.96,West,267,0.0,1.8,93,0.00, ,,-99.99,VWS V12.07,2013-09-04 06:19:00,
2013-09-04 02:24:00,75.1,72.8,29.96,West,267,0.0,0.0,93,0.00, ,,-99.99,VWS V12.07,2013-09-04 06:24:00,
2013-09-04 02:29:00,74.6,72.4,29.96,West,267,0.0,0.0,93,0.00, ,,-99.99,VWS V12.07,2013-09-04 06:29:00,
2013-09-04 02:34:00,74.5,72.4,29.96,West,267,0.0,0.0,93,0.00, ,,-99.99,VWS V12.07,2013-09-04 06:34:00,
2013-09-04 02:39:00,74.3,72.1,29.96,West,267,0.0,0.0,93,0.00, ,,-99.99,VWS V12.07,2013-09-04 06:39:00,
2013-09-04 02:44:00,74.1,72.0,29.95,West,267,0.0,0.0,93,0.00, ,,-99.99,VWS V12.07,2013-09-04 06:44:00,
2013-09-04 02:49:00,73.8,71.6,29.95,West,267,0.0,0.0,93,0.00, ,,-99.99,VWS V12.07,2013-09-04 06:49:00,
2013-09-04 02:54:00,73.7,71.4,29.95,West,267,0.0,0.0,92,0.00, ,,-99.99,VWS V12.07,2013-09-04 06:54:00,
2013-09-04 02:59:00,73.4,71.0,29.95,West,267,0.0,0.0,92,0.00, ,,-99.99,VWS V12.07,2013-09-04 06:59:00,
2013-09-04 03:04:00,73.6,71.2,29.95,West,267,0.0,0.0,92,0.00, ,,-99.99,VWS V12.07,2013-09-04 07:04:00,
2013-09-04 03:09:00,73.8,71.4,29.95,West,267,0.0,0.0,92,0.00, ,,-99.99,VWS V12.07,2013-09-04 07:09:00,
2013-09-04 03:14:00,74.1,71.7,29.95,West,267,0.0,0.0,92,0.00, ,,-99.99,VWS V12.07,2013-09-04 07:14:00,
2013-09-04 03:19:00,73.7,70.8,29.96,West,267,0.0,0.0,91,0.00, ,,-99.99,VWS V12.07,2013-09-04 07:19:00,
2013-09-04 03:24:00,74.0,71.3,29.95,West,267,0.0,0.0,91,0.00, ,,-99.99,VWS V12.07,2013-09-04 07:24:00,
2013-09-04 03:29:00,73.3,70.3,29.96,NNW,333,4.8,6.6,90,0.00, ,,-99.99,VWS V12.07,2013-09-04 07:29:00,
2013-09-04 03:34:00,74.3,71.2,29.96,NNW,334,0.0,6.6,90,0.00, ,,-99.99,VWS V12.07,2013-09-04 07:34:00,
2013-09-04 03:39:00,73.9,70.6,29.96,NNW,336,0.0,6.6,90,0.00, ,,-99.99,VWS V12.07,2013-09-04 07:39:00,
2013-09-04 03:44:00,74.0,70.8,29.96,NNW,336,0.0,0.0,90,0.00, ,,-99.99,VWS V12.07,2013-09-04 07:44:00,
2013-09-04 03:49:00,73.9,70.4,29.96,North,354,0.0,7.0,89,0.00, ,,-99.99,VWS V12.07,2013-09-04 07:49:00,
2013-09-04 03:54:00,73.9,70.7,29.96,North,354,4.5,7.0,90,0.00, ,,-99.99,VWS V12.07,2013-09-04 07:54:00,
2013-09-04 03:59:00,74.0,71.1,29.96,North,351,2.6,7.0,91,0.00, ,,-99.99,VWS V12.07,2013-09-04 07:59:00,
2013-09-04 04:04:00,74.2,71.3,29.96,North,360,0.0,5.5,91,0.00, ,,-99.99,VWS V12.07,2013-09-04 08:04:00,
2013-09-04 04:09:00,73.4,70.6,29.97,North,357,0.0,5.5,91,0.00, ,,-99.99,VWS V12.07,2013-09-04 08:09:00,
2013-09-04 04:14:00,73.6,70.9,29.97,NNW,344,0.0,6.5,91,0.00, ,,-99.99,VWS V12.07,2013-09-04 08:14:00,
2013-09-04 04:19:00,73.6,71.0,29.97,NNW,344,0.0,6.5,92,0.00, ,,-99.99,VWS V12.07,2013-09-04 08:19:00,
2013-09-04 04:25:00,73.4,71.0,29.97,NNW,344,0.0,0.0,92,0.00, ,,-99.99,VWS V12.07,2013-09-04 08:25:00,
2013-09-04 04:30:00,73.6,71.0,29.97,NNW,327,0.0,7.5,92,0.00, ,,-99.99,VWS V12.07,2013-09-04 08:30:00,
2013-09-04 04:35:00,73.7,71.2,29.97,NNW,340,0.0,7.5,92,0.00, ,,-99.99,VWS V12.07,2013-09-04 08:35:00,
2013-09-04 04:40:00,73.1,70.4,29.97,NNW,341,0.0,0.0,91,0.00, ,,-99.99,VWS V12.07,2013-09-04 08:40:00,
2013-09-04 04:45:00,73.2,70.6,29.97,NNW,347,3.2,6.0,92,0.00, ,,-99.99,VWS V12.07,2013-09-04 08:45:00,
2013-09-04 04:50:00,73.6,71.1,29.97,NNW,344,0.0,6.0,92,0.00, ,,-99.99,VWS V12.07,2013-09-04 08:50:00,
2013-09-04 04:55:00,73.3,70.8,29.98,NW,315,0.0,6.0,92,0.00, ,,-99.99,VWS V12.07,2013-09-04 08:55:00,
2013-09-04 05:00:00,73.7,71.3,29.98,WNW,303,0.0,0.0,92,0.00, ,,-99.99,VWS V12.07,2013-09-04 09:00:00,
2013-09-04 05:05:00,73.8,71.5,29.97,WNW,303,0.0,0.0,93,0.00, ,,-99.99,VWS V12.07,2013-09-04 09:05:00,
2013-09-04 05:10:00,73.3,71.0,29.97,WNW,303,0.0,0.0,92,0.00, ,,-99.99,VWS V12.07,2013-09-04 09:10:00,
2013-09-04 05:15:00,73.5,71.2,29.98,WNW,303,0.0,0.0,92,0.00, ,,-99.99,VWS V12.07,2013-09-04 09:15:00,
2013-09-04 05:20:00,73.2,70.9,29.98,WNW,303,0.0,0.0,93,0.00, ,,-99.99,VWS V12.07,2013-09-04 09:20:00,
2013-09-04 05:25:00,73.0,71.0,29.97,WNW,303,0.0,0.0,93,0.00, ,,-99.99,VWS V12.07,2013-09-04 09:25:00,
2013-09-04 05:30:00,73.3,71.5,29.98,WNW,303,0.0,0.0,94,0.00, ,,-99.99,VWS V12.07,2013-09-04 09:30:00,
2013-09-04 05:35:00,73.8,71.9,29.98,WNW,303,0.0,0.0,94,0.00, ,,-99.99,VWS V12.07,2013-09-04 09:35:00,
2013-09-04 05:40:00,73.7,71.8,29.98,WNW,303,0.0,0.0,94,0.00, ,,-99.99,VWS V12.07,2013-09-04 09:40:00,
2013-09-04 05:45:00,73.6,71.7,29.98,WNW,303,0.0,0.0,94,0.00, ,,-99.99,VWS V12.07,2013-09-04 09:45:00,
2013-09-04 05:50:00,73.9,72.0,29.98,WNW,303,0.0,0.0,94,0.00, ,,-99.99,VWS V12.07,2013-09-04 09:50:00,
2013-09-04 05:55:00,73.4,71.5,29.99,WNW,303,0.0,0.0,94,0.00, ,,-99.99,VWS V12.07,2013-09-04 09:55:00,
2013-09-04 06:01:00,73.5,71.6,29.99,WNW,303,0.0,0.0,94,0.00, ,,-99.99,VWS V12.07,2013-09-04 10:01:00,
2013-09-04 06:06:00,73.3,71.6,29.98,WNW,303,0.0,0.0,94,0.00, ,,-99.99,VWS V12.07,2013-09-04 10:06:00,
2013-09-04 06:11:00,73.1,71.3,29.99,NNW,346,2.7,4.6,94,0.00, ,,-99.99,VWS V12.07,2013-09-04 10:11:00,
2013-09-04 06:16:00,73.6,71.8,29.99,North,357,0.0,4.6,94,0.00, ,,-99.99,VWS V12.07,2013-09-04 10:16:00,
2013-09-04 06:21:00,73.2,71.4,29.98,North,357,0.0,0.0,94,0.00, ,,-99.99,VWS V12.07,2013-09-04 10:21:00,
2013-09-04 06:26:00,73.8,72.0,29.99,North,357,0.0,0.0,94,0.00, ,,-99.99,VWS V12.07,2013-09-04 10:26:00,
2013-09-04 06:31:00,73.5,71.6,29.99,North,357,0.0,0.0,94,0.00, ,,-99.99,VWS V12.07,2013-09-04 10:31:00,
2013-09-04 06:36:00,72.8,70.9,29.99,North,357,0.0,0.0,94,0.00, ,,-99.99,VWS V12.07,2013-09-04 10:36:00,
2013-09-04 06:41:00,72.9,70.9,29.99,North,357,0.0,0.0,94,0.00, ,,-99.99,VWS V12.07,2013-09-04 10:41:00,
2013-09-04 06:46:00,72.9,70.9,29.99,North,357,0.0,0.0,93,0.00, ,,-99.99,VWS V12.07,2013-09-04 10:46:00,
2013-09-04 06:51:00,72.9,70.7,29.99,NNW,332,0.0,5.2,93,0.00, ,,-99.99,VWS V12.07,2013-09-04 10:51:00,
2013-09-04 06:56:00,73.3,71.1,30.00,North,350,0.0,6.6,93,0.00, ,,-99.99,VWS V12.07,2013-09-04 10:56:00,
2013-09-04 07:01:00,73.6,71.4,30.00,North,350,0.0,0.0,93,0.00, ,,-99.99,VWS V12.07,2013-09-04 11:01:00,
2013-09-04 07:06:00,73.4,71.1,30.00,North,350,0.0,0.0,93,0.00, ,,-99.99,VWS V12.07,2013-09-04 11:06:00,
2013-09-04 07:11:00,73.6,71.2,30.00,North,350,0.0,0.0,92,0.00, ,,-99.99,VWS V12.07,2013-09-04 11:11:00,
2013-09-04 07:16:00,73.2,70.6,30.00,North,358,0.0,7.0,92,0.00, ,,-99.99,VWS V12.07,2013-09-04 11:16:00,
2013-09-04 07:21:00,73.7,71.0,30.01,NNW,344,6.1,7.5,91,0.00, ,,-99.99,VWS V12.07,2013-09-04 11:21:00,
2013-09-04 07:26:00,73.5,70.8,30.01,NNW,336,0.0,7.8,91,0.00, ,,-99.99,VWS V12.07,2013-09-04 11:26:00,
2013-09-04 07:31:00,73.4,70.7,30.01,NNW,347,7.7,7.8,91,0.00, ,,-99.99,VWS V12.07,2013-09-04 11:31:00,
2013-09-04 07:36:00,74.1,71.2,30.01,NNW,344,7.4,9.6,91,0.00, ,,-99.99,VWS V12.07,2013-09-04 11:36:00,
2013-09-04 07:41:00,73.7,70.9,30.02,NNW,343,6.2,8.2,91,0.00, ,,-99.99,VWS V12.07,2013-09-04 11:41:00,
2013-09-04 07:46:00,74.1,71.3,30.02,NNW,346,5.7,10.3,91,0.00, ,,-99.99,VWS V12.07,2013-09-04 11:46:00,
2013-09-04 07:51:00,74.1,71.2,30.02,NNW,348,9.6,10.3,91,0.00, ,,-99.99,VWS V12.07,2013-09-04 11:51:00,
2013-09-04 07:56:00,74.6,71.9,30.02,NNE,24,0.0,10.4,91,0.00, ,,-99.99,VWS V12.07,2013-09-04 11:56:00,
2013-09-04 08:01:00,73.9,71.2,30.02,North,8,11.6,12.4,91,0.00, ,,-99.99,VWS V12.07,2013-09-04 12:01:00,
2013-09-04 08:06:00,73.9,71.4,30.03,North,10,9.7,12.7,92,0.00, ,,-99.99,VWS V12.07,2013-09-04 12:06:00,
2013-09-04 08:11:00,74.0,71.6,30.03,North,360,9.7,12.7,92,0.00, ,,-99.99,VWS V12.07,2013-09-04 12:11:00,
2013-09-04 08:16:00,73.8,71.5,30.03,North,7,11.2,12.7,92,0.00, ,,-99.99,VWS V12.07,2013-09-04 12:16:00,
2013-09-04 08:21:00,74.0,71.9,30.03,NNE,28,9.3,10.9,93,0.00, ,,-99.99,VWS V12.07,2013-09-04 12:21:00,
2013-09-04 08:27:00,73.6,71.6,30.04,North,7,9.9,11.7,94,0.00, ,,-99.99,VWS V12.07,2013-09-04 12:27:00,
2013-09-04 08:32:00,73.9,71.8,30.04,NNE,18,10.1,11.7,93,0.00, ,,-99.99,VWS V12.07,2013-09-04 12:32:00,
2013-09-04 08:37:00,73.7,71.6,30.04,North,10,9.1,12.2,93,0.00, ,,-99.99,VWS V12.07,2013-09-04 12:37:00,
2013-09-04 08:42:00,74.3,72.2,30.05,North,11,9.4,12.4,93,0.00, ,,-99.99,VWS V12.07,2013-09-04 12:42:00,
2013-09-04 08:47:00,73.9,71.7,30.05,North,7,8.5,12.4,93,0.00, ,,-99.99,VWS V12.07,2013-09-04 12:47:00,
2013-09-04 08:52:00,74.5,72.2,30.05,North,10,6.3,12.4,93,0.00, ,,-99.99,VWS V12.07,2013-09-04 12:52:00,
2013-09-04 08:57:00,74.1,71.8,30.05,North,4,7.0,12.4,92,0.00, ,,-99.99,VWS V12.07,2013-09-04 12:57:00,
2013-09-04 09:02:00,74.5,72.0,30.05,North,11,9.1,10.8,92,0.00, ,,-99.99,VWS V12.07,2013-09-04 13:02:00,
2013-09-04 09:07:00,75.4,72.7,30.05,SE,136,6.1,10.8,91,0.00, ,,-99.99,VWS V12.07,2013-09-04 13:07:00,
2013-09-04 09:12:00,75.5,72.7,30.05,ESE,107,0.0,10.8,91,0.00, ,,-99.99,VWS V12.07,2013-09-04 13:12:00,
2013-09-04 09:17:00,75.7,71.9,30.05,NE,42,7.6,10.8,88,0.00, ,,-99.99,VWS V12.07,2013-09-04 13:17:00,
2013-09-04 09:22:00,75.8,72.2,30.05,NE,52,9.3,9.6,88,0.00, ,,-99.99,VWS V12.07,2013-09-04 13:22:00,
2013-09-04 09:27:00,75.9,72.6,30.05,East,98,2.4,10.1,89,0.00, ,,-99.99,VWS V12.07,2013-09-04 13:27:00,
2013-09-04 09:32:00,76.2,72.7,30.06,East,80,0.0,11.4,89,0.00, ,,-99.99,VWS V12.07,2013-09-04 13:32:00,
2013-09-04 09:37:00,76.4,72.6,30.06,ENE,77,3.2,11.4,88,0.00, ,,-99.99,VWS V12.07,2013-09-04 13:37:00,
2013-09-04 09:42:00,77.4,73.2,30.06,NNE,24,0.0,8.6,87,0.00, ,,-99.99,VWS V12.07,2013-09-04 13:42:00,
2013-09-04 09:47:00,77.9,73.7,30.06,ENE,73,6.3,10.3,87,0.00, ,,-99.99,VWS V12.07,2013-09-04 13:47:00,
2013-09-04 09:52:00,76.5,71.3,30.06,East,101,9.9,12.3,84,0.00, ,,-99.99,VWS V12.07,2013-09-04 13:52:00,
2013-09-04 09:57:00,76.7,72.1,30.06,ENE,63,5.5,12.3,86,0.00, ,,-99.99,VWS V12.07,2013-09-04 13:57:00,
2013-09-04 10:02:00,77.4,72.3,30.07,ENE,63,6.1,9.6,84,0.00, ,,-99.99,VWS V12.07,2013-09-04 14:02:00,
2013-09-04 10:07:00,77.5,72.1,30.07,ENE,70,7.8,11.4,84,0.00, ,,-99.99,VWS V12.07,2013-09-04 14:07:00,
2013-09-04 10:12:00,77.8,71.9,30.07,East,80,8.3,11.6,82,0.00, ,,-99.99,VWS V12.07,2013-09-04 14:12:00,
2013-09-04 10:17:00,78.0,72.1,30.07,ENE,64,9.7,11.6,82,0.00, ,,-99.99,VWS V12.07,2013-09-04 14:17:00,
2013-09-04 10:22:00,77.3,71.5,30.07,ENE,63,7.7,10.7,82,0.00, ,,-99.99,VWS V12.07,2013-09-04 14:22:00,
2013-09-04 10:27:00,78.0,72.2,30.07,ENE,60,7.1,10.7,82,0.00, ,,-99.99,VWS V12.07,2013-09-04 14:27:00,
2013-09-04 10:32:00,78.2,72.3,30.07,East,88,9.0,10.7,82,0.00, ,,-99.99,VWS V12.07,2013-09-04 14:32:00,
2013-09-04 10:37:00,77.9,72.2,30.07,ENE,66,4.5,10.7,82,0.00, ,,-99.99,VWS V12.07,2013-09-04 14:37:00,
2013-09-04 10:42:00,79.1,73.1,30.07,ESE,115,8.5,8.8,82,0.00, ,,-99.99,VWS V12.07,2013-09-04 14:42:00,
2013-09-04 10:47:00,80.2,73.7,30.07,NNE,28,2.2,10.0,80,0.00, ,,-99.99,VWS V12.07,2013-09-04 14:47:00,
2013-09-04 10:52:00,80.4,72.7,30.07,East,88,3.2,10.0,77,0.00, ,,-99.99,VWS V12.07,2013-09-04 14:52:00,
2013-09-04 10:57:00,80.2,72.5,30.08,ENE,64,7.0,10.0,78,0.00, ,,-99.99,VWS V12.07,2013-09-04 14:57:00,
2013-09-04 11:02:00,80.4,72.9,30.08,ENE,74,7.5,10.7,78,0.00, ,,-99.99,VWS V12.07,2013-09-04 15:02:00,
2013-09-04 11:07:00,80.3,72.7,30.08,East,98,5.5,10.7,78,0.00, ,,-99.99,VWS V12.07,2013-09-04 15:07:00,
2013-09-04 11:12:00,80.2,72.4,30.08,ENE,74,6.2,10.7,77,0.00, ,,-99.99,VWS V12.07,2013-09-04 15:12:00,
2013-09-04 11:17:00,80.4,72.9,30.08,ENE,71,8.4,10.7,78,0.00, ,,-99.99,VWS V12.07,2013-09-04 15:17:00,
2013-09-04 11:22:00,80.2,71.9,30.08,ENE,78,6.2,10.1,76,0.00, ,,-99.99,VWS V12.07,2013-09-04 15:22:00,
2013-09-04 11:27:00,80.5,72.1,30.08,East,88,7.8,10.1,76,0.00, ,,-99.99,VWS V12.07,2013-09-04 15:27:00,
2013-09-04 11:32:00,80.3,71.6,30.08,East,85,9.1,11.9,75,0.00, ,,-99.99,VWS V12.07,2013-09-04 15:32:00,
2013-09-04 11:37:00,80.3,72.1,30.08,NE,56,8.5,11.9,76,0.00, ,,-99.99,VWS V12.07,2013-09-04 15:37:00,
2013-09-04 11:42:00,80.1,71.2,30.08,East,87,6.0,10.8,74,0.00, ,,-99.99,VWS V12.07,2013-09-04 15:42:00,
2013-09-04 11:47:00,80.7,72.2,30.08,ENE,71,3.0,10.8,75,0.00, ,,-99.99,VWS V12.07,2013-09-04 15:47:00,
2013-09-04 11:52:00,81.4,71.8,30.08,East,100,7.3,10.8,73,0.00, ,,-99.99,VWS V12.07,2013-09-04 15:52:00,
2013-09-04 11:57:00,81.1,71.6,30.08,ENE,74,6.3,11.7,73,0.00, ,,-99.99,VWS V12.07,2013-09-04 15:57:00,
2013-09-04 12:02:00,80.7,71.3,30.08,East,100,7.8,11.4,73,0.00, ,,-99.99,VWS V12.07,2013-09-04 16:02:00,
2013-09-04 12:07:00,80.7,72.2,30.08,ESE,105,9.4,11.4,75,0.00, ,,-99.99,VWS V12.07,2013-09-04 16:07:00,
2013-09-04 12:12:00,80.2,71.9,30.08,SE,126,6.1,11.4,76,0.00, ,,-99.99,VWS V12.07,2013-09-04 16:12:00,
2013-09-04 12:17:00,80.2,71.7,30.08,East,85,8.0,11.4,75,0.00, ,,-99.99,VWS V12.07,2013-09-04 16:17:00,
2013-09-04 12:22:00,80.8,72.5,30.08,ESE,112,10.0,10.7,76,0.00, ,,-99.99,VWS V12.07,2013-09-04 16:22:00,
2013-09-04 12:27:00,80.5,72.6,30.08,East,92,6.2,11.7,77,0.00, ,,-99.99,VWS V12.07,2013-09-04 16:27:00,
2013-09-04 12:32:00,80.5,72.7,30.08,ESE,107,7.8,13.0,77,0.00, ,,-99.99,VWS V12.07,2013-09-04 16:32:00,
2013-09-04 12:37:00,80.2,71.6,30.08,NE,56,9.8,13.0,75,0.00, ,,-99.99,VWS V12.07,2013-09-04 16:37:00,
2013-09-04 12:42:00,80.8,72.0,30.08,SE,138,10.2,11.6,75,0.00, ,,-99.99,VWS V12.07,2013-09-04 16:42:00,
2013-09-04 12:47:00,80.9,72.0,30.08,SE,138,10.3,12.1,74,0.00, ,,-99.99,VWS V12.07,2013-09-04 16:47:00,
2013-09-04 12:52:00,81.4,72.9,30.08,SE,140,7.4,12.1,75,0.00, ,,-99.99,VWS V12.07,2013-09-04 16:52:00,
2013-09-04 12:57:00,81.4,72.4,30.08,ESE,115,10.6,12.1,74,0.00, ,,-99.99,VWS V12.07,2013-09-04 16:57:00,
2013-09-04 13:02:00,80.5,71.8,30.08,ESE,104,9.8,13.2,75,0.00, ,,-99.99,VWS V12.07,2013-09-04 17:02:00,
2013-09-04 13:07:00,81.0,71.2,30.08,East,98,6.1,13.2,72,0.00, ,,-99.99,VWS V12.07,2013-09-04 17:07:00,
2013-09-04 13:12:00,81.7,72.0,30.08,East,95,5.9,13.2,72,0.00, ,,-99.99,VWS V12.07,2013-09-04 17:12:00,
2013-09-04 13:17:00,81.8,72.8,30.08,SSE,147,10.1,14.4,74,0.00, ,,-99.99,VWS V12.07,2013-09-04 17:17:00,
2013-09-04 13:22:00,81.1,72.5,30.08,SE,133,9.9,13.7,75,0.00, ,,-99.99,VWS V12.07,2013-09-04 17:22:00,
2013-09-04 13:27:00,81.4,72.8,30.07,SE,143,8.1,13.7,75,0.00, ,,-99.99,VWS V12.07,2013-09-04 17:27:00,
2013-09-04 13:33:00,81.1,73.1,30.07,SE,135,12.3,14.6,77,0.00, ,,-99.99,VWS V12.07,2013-09-04 17:33:00,
2013-09-04 13:38:00,80.9,72.7,30.07,SE,145,6.0,15.0,76,0.00, ,,-99.99,VWS V12.07,2013-09-04 17:38:00,
2013-09-04 13:43:00,81.0,72.4,30.07,SSE,154,11.9,13.3,75,0.00, ,,-99.99,VWS V12.07,2013-09-04 17:43:00,
2013-09-04 13:48:00,81.4,73.3,30.07,SSE,149,8.9,15.2,77,0.00, ,,-99.99,VWS V12.07,2013-09-04 17:48:00,
2013-09-04 13:53:00,81.3,72.9,30.07,SSE,167,10.2,15.2,76,0.00, ,,-99.99,VWS V12.07,2013-09-04 17:53:00,
2013-09-04 13:58:00,80.8,72.8,30.07,SSE,150,10.1,15.2,77,0.00, ,,-99.99,VWS V12.07,2013-09-04 17:58:00,
2013-09-04 14:03:00,81.1,73.0,30.07,SSE,157,9.7,12.9,76,0.00, ,,-99.99,VWS V12.07,2013-09-04 18:03:00,
2013-09-04 14:08:00,81.4,73.5,30.07,SSE,157,9.8,13.2,77,0.00, ,,-99.99,VWS V12.07,2013-09-04 18:08:00,
2013-09-04 14:13:00,81.6,73.6,30.07,SE,145,9.8,13.2,77,0.00, ,,-99.99,VWS V12.07,2013-09-04 18:13:00,
2013-09-04 14:18:00,82.2,73.2,30.07,SE,138,11.7,13.2,74,0.00, ,,-99.99,VWS V12.07,2013-09-04 18:18:00,
2013-09-04 14:23:00,81.7,73.7,30.07,SSE,157,9.9,12.6,77,0.00, ,,-99.99,VWS V12.07,2013-09-04 18:23:00,
2013-09-04 14:28:00,81.5,73.2,30.07,SE,135,8.8,13.4,76,0.00, ,,-99.99,VWS V12.07,2013-09-04 18:28:00,
2013-09-04 14:33:00,81.6,73.4,30.06,SSE,160,10.7,14.7,76,0.00, ,,-99.99,VWS V12.07,2013-09-04 18:33:00,
2013-09-04 14:38:00,81.4,73.6,30.06,SE,139,10.8,14.9,77,0.00, ,,-99.99,VWS V12.07,2013-09-04 18:38:00,
2013-09-04 14:43:00,81.5,73.2,30.06,SE,145,11.1,13.0,76,0.00, ,,-99.99,VWS V12.07,2013-09-04 18:43:00,
2013-09-04 14:48:00,81.5,72.9,30.06,SSE,157,8.6,13.0,75,0.00, ,,-99.99,VWS V12.07,2013-09-04 18:48:00,
2013-09-04 14:53:00,81.8,73.0,30.06,SE,145,10.9,13.4,75,0.00, ,,-99.99,VWS V12.07,2013-09-04 18:53:00,
2013-09-04 14:58:00,81.9,73.9,30.06,SSW,201,8.6,13.4,77,0.00, ,,-99.99,VWS V12.07,2013-09-04 18:58:00,
2013-09-04 15:03:00,82.3,73.2,30.06,SSE,154,10.4,12.9,74,0.00, ,,-99.99,VWS V12.07,2013-09-04 19:03:00,
2013-09-04 15:08:00,82.2,73.5,30.06,SSE,157,9.7,12.9,75,0.00, ,,-99.99,VWS V12.07,2013-09-04 19:08:00,
2013-09-04 15:13:00,81.5,72.8,30.06,SSE,154,8.3,12.9,75,0.00, ,,-99.99,VWS V12.07,2013-09-04 19:13:00,
2013-09-04 15:18:00,81.7,72.3,30.06,SSE,147,9.0,12.9,73,0.00, ,,-99.99,VWS V12.07,2013-09-04 19:18:00,
2013-09-04 15:23:00,81.8,72.4,30.05,SE,143,7.8,10.6,73,0.00, ,,-99.99,VWS V12.07,2013-09-04 19:23:00,
2013-09-04 15:28:00,81.7,72.7,30.05,SE,132,9.2,11.4,74,0.00, ,,-99.99,VWS V12.07,2013-09-04 19:28:00,
2013-09-04 15:33:00,82.2,73.1,30.05,SE,138,8.7,11.9,74,0.00, ,,-99.99,VWS V12.07,2013-09-04 19:33:00,
2013-09-04 15:38:00,81.8,72.9,30.05,South,182,7.1,11.9,74,0.00, ,,-99.99,VWS V12.07,2013-09-04 19:38:00,
2013-09-04 15:43:00,82.0,72.8,30.05,SSE,149,9.7,10.5,74,0.00, ,,-99.99,VWS V12.07,2013-09-04 19:43:00,
2013-09-04 15:48:00,82.2,73.6,30.05,SSE,147,10.1,11.3,75,0.00, ,,-99.99,VWS V12.07,2013-09-04 19:48:00,
2013-09-04 15:53:00,81.7,72.9,30.05,SE,145,9.4,11.5,75,0.00, ,,-99.99,VWS V12.07,2013-09-04 19:53:00,
2013-09-04 15:58:00,81.1,72.9,30.05,South,182,9.8,11.8,76,0.00, ,,-99.99,VWS V12.07,2013-09-04 19:58:00,
2013-09-04 16:03:00,82.4,73.8,30.05,SSE,160,9.8,12.2,75,0.00, ,,-99.99,VWS V12.07,2013-09-04 20:03:00,
2013-09-04 16:08:00,81.7,73.2,30.05,SSE,160,9.0,12.8,75,0.00, ,,-99.99,VWS V12.07,2013-09-04 20:08:00,
2013-09-04 16:13:00,81.9,73.6,30.05,South,173,9.0,12.8,76,0.00, ,,-99.99,VWS V12.07,2013-09-04 20:13:00,
2013-09-04 16:18:00,82.0,73.5,30.05,ESE,111,7.7,12.8,75,0.00, ,,-99.99,VWS V12.07,2013-09-04 20:18:00,
2013-09-04 16:23:00,81.8,73.3,30.05,SE,146,9.9,11.1,76,0.00, ,,-99.99,VWS V12.07,2013-09-04 20:23:00,
2013-09-04 16:28:00,81.7,73.2,30.05,SE,142,8.5,12.4,75,0.00, ,,-99.99,VWS V12.07,2013-09-04 20:28:00,
2013-09-04 16:33:00,82.0,73.5,30.05,SSE,147,9.2,12.4,76,0.00, ,,-99.99,VWS V12.07,2013-09-04 20:33:00,
2013-09-04 16:38:00,81.4,73.4,30.05,SE,140,8.6,12.4,77,0.00, ,,-99.99,VWS V12.07,2013-09-04 20:38:00,
2013-09-04 16:43:00,81.1,72.9,30.05,SSE,156,8.6,12.9,76,0.00, ,,-99.99,VWS V12.07,2013-09-04 20:43:00,
2013-09-04 16:48:00,81.4,73.0,30.05,ESE,118,9.6,12.9,76,0.00, ,,-99.99,VWS V12.07,2013-09-04 20:48:00,
2013-09-04 16:53:00,81.5,73.2,30.05,SE,139,7.1,12.9,76,0.00, ,,-99.99,VWS V12.07,2013-09-04 20:53:00,
2013-09-04 16:58:00,81.4,72.7,30.05,SE,125,11.8,12.9,75,0.00, ,,-99.99,VWS V12.07,2013-09-04 20:58:00,
2013-09-04 17:03:00,81.4,73.0,30.05,SE,138,7.5,11.7,76,0.00, ,,-99.99,VWS V12.07,2013-09-04 21:03:00,
2013-09-04 17:08:00,81.4,72.9,30.05,South,171,8.7,11.7,75,0.00, ,,-99.99,VWS V12.07,2013-09-04 21:08:00,
2013-09-04 17:13:00,81.8,73.3,30.05,SSE,159,9.0,12.6,76,0.00, ,,-99.99,VWS V12.07,2013-09-04 21:13:00,
2013-09-04 17:18:00,81.4,73.2,30.04,SE,132,7.6,12.6,76,0.00, ,,-99.99,VWS V12.07,2013-09-04 21:18:00,
2013-09-04 17:23:00,81.4,73.3,30.04,SE,138,8.5,12.8,77,0.00, ,,-99.99,VWS V12.07,2013-09-04 21:23:00,
2013-09-04 17:28:00,81.3,73.2,30.04,ESE,109,11.2,12.8,77,0.00, ,,-99.99,VWS V12.07,2013-09-04 21:28:00,
2013-09-04 17:33:00,81.3,73.1,30.04,ESE,116,9.9,12.8,76,0.00, ,,-99.99,VWS V12.07,2013-09-04 21:33:00,
2013-09-04 17:38:00,81.3,72.7,30.04,SSE,147,9.4,12.8,75,0.00, ,,-99.99,VWS V12.07,2013-09-04 21:38:00,
2013-09-04 17:43:00,81.3,73.0,30.04,SE,140,8.7,12.1,76,0.00, ,,-99.99,VWS V12.07,2013-09-04 21:43:00,
2013-09-04 17:48:00,81.4,73.0,30.04,SSE,149,10.7,12.1,76,0.00, ,,-99.99,VWS V12.07,2013-09-04 21:48:00,
2013-09-04 17:53:00,81.0,72.9,30.04,SE,136,10.8,12.1,76,0.00, ,,-99.99,VWS V12.07,2013-09-04 21:53:00,
2013-09-04 17:58:00,81.1,73.2,30.04,SE,145,10.2,12.5,77,0.00, ,,-99.99,VWS V12.07,2013-09-04 21:58:00,
2013-09-04 18:03:00,81.4,73.6,30.04,SE,138,9.7,12.4,77,0.00, ,,-99.99,VWS V12.07,2013-09-04 22:03:00,
2013-09-04 18:08:00,81.1,73.2,30.04,SE,140,8.4,12.4,77,0.00, ,,-99.99,VWS V12.07,2013-09-04 22:08:00,
2013-09-04 18:13:00,80.9,73.1,30.04,SE,125,10.2,12.5,77,0.00, ,,-99.99,VWS V12.07,2013-09-04 22:13:00,
2013-09-04 18:18:00,81.1,73.4,30.04,ESE,118,8.3,12.5,78,0.00, ,,-99.99,VWS V12.07,2013-09-04 22:18:00,
2013-09-04 18:23:00,80.8,73.5,30.04,ESE,122,8.3,13.0,78,0.00, ,,-99.99,VWS V12.07,2013-09-04 22:23:00,
2013-09-04 18:28:00,80.5,73.1,30.05,SE,136,7.6,13.0,78,0.00, ,,-99.99,VWS V12.07,2013-09-04 22:28:00,
2013-09-04 18:33:00,80.8,73.5,30.05,SE,133,6.5,13.0,78,0.00, ,,-99.99,VWS V12.07,2013-09-04 22:33:00,
2013-09-04 18:38:00,80.7,73.4,30.05,SSE,166,9.3,13.0,79,0.00, ,,-99.99,VWS V12.07,2013-09-04 22:38:00,
2013-09-04 18:43:00,80.5,73.3,30.05,SSE,149,9.5,10.8,79,0.00, ,,-99.99,VWS V12.07,2013-09-04 22:43:00,
2013-09-04 18:48:00,80.5,73.6,30.05,SSE,159,7.8,10.9,80,0.00, ,,-99.99,VWS V12.07,2013-09-04 22:48:00,
2013-09-04 18:53:00,80.4,73.6,30.05,SSE,156,8.3,10.9,80,0.00, ,,-99.99,VWS V12.07,2013-09-04 22:53:00,
2013-09-04 18:58:00,80.5,73.4,30.05,SSE,157,9.3,10.9,79,0.00, ,,-99.99,VWS V12.07,2013-09-04 22:58:00,
2013-09-04 19:03:00,80.7,74.0,30.05,South,185,5.9,9.7,80,0.00, ,,-99.99,VWS V12.07,2013-09-04 23:03:00,
2013-09-04 19:08:00,80.6,73.9,30.05,SSE,156,7.1,9.7,80,0.00, ,,-99.99,VWS V12.07,2013-09-04 23:08:00,
2013-09-04 19:14:00,80.4,73.7,30.05,SE,139,7.3,9.7,80,0.00, ,,-99.99,VWS V12.07,2013-09-04 23:14:00,
2013-09-04 19:19:00,80.5,74.1,30.05,SE,142,7.4,9.7,81,0.00, ,,-99.99,VWS V12.07,2013-09-04 23:19:00,
2013-09-04 19:24:00,80.3,73.9,30.05,SSE,160,7.8,9.8,81,0.00, ,,-99.99,VWS V12.07,2013-09-04 23:24:00,
2013-09-04 19:29:00,80.1,73.7,30.05,SE,142,6.8,9.8,81,0.00, ,,-99.99,VWS V12.07,2013-09-04 23:29:00,
2013-09-04 19:34:00,80.3,74.0,30.05,SSE,167,9.1,9.9,81,0.00, ,,-99.99,VWS V12.07,2013-09-04 23:34:00,
2013-09-04 19:39:00,80.3,74.1,30.05,SE,138,9.0,9.9,82,0.00, ,,-99.99,VWS V12.07,2013-09-04 23:39:00,
2013-09-04 19:44:00,80.0,73.8,30.05,SE,133,6.8,10.4,81,0.00, ,,-99.99,VWS V12.07,2013-09-04 23:44:00,
2013-09-04 19:49:00,80.4,74.3,30.05,SSE,156,7.1,10.4,82,0.00, ,,-99.99,VWS V12.07,2013-09-04 23:49:00,
2013-09-04 19:54:00,80.2,74.3,30.05,SE,142,7.1,10.4,82,0.00, ,,-99.99,VWS V12.07,2013-09-04 23:54:00,
2013-09-04 19:59:00,80.2,74.3,30.05,SSE,150,8.4,10.7,82,0.00, ,,-99.99,VWS V12.07,2013-09-04 23:59:00,
2013-09-04 20:04:00,80.4,74.6,30.05,SE,138,9.8,11.1,82,0.00, ,,-99.99,VWS V12.07,2013-09-05 00:04:00,
2013-09-04 20:09:00,80.2,74.5,30.05,SE,140,8.0,11.1,83,0.00, ,,-99.99,VWS V12.07,2013-09-05 00:09:00,
2013-09-04 20:14:00,80.2,74.3,30.06,SE,140,7.4,11.1,82,0.00, ,,-99.99,VWS V12.07,2013-09-05 00:14:00,
2013-09-04 20:19:00,80.1,74.3,30.06,South,181,6.8,11.1,82,0.00, ,,-99.99,VWS V12.07,2013-09-05 00:19:00,
2013-09-04 20:24:00,80.2,74.5,30.06,South,173,7.1,10.0,83,0.00, ,,-99.99,VWS V12.07,2013-09-05 00:24:00,
2013-09-04 20:29:00,80.4,74.7,30.06,SSE,150,6.7,10.0,83,0.00, ,,-99.99,VWS V12.07,2013-09-05 00:29:00,
2013-09-04 20:34:00,80.1,74.5,30.06,South,180,5.3,10.4,83,0.00, ,,-99.99,VWS V12.07,2013-09-05 00:34:00,
2013-09-04 20:39:00,80.3,74.7,30.06,SE,136,8.3,10.4,83,0.00, ,,-99.99,VWS V12.07,2013-09-05 00:39:00,
2013-09-04 20:44:00,80.4,75.0,30.07,SSE,153,5.3,10.2,84,0.00, ,,-99.99,VWS V12.07,2013-09-05 00:44:00,
2013-09-04 20:49:00,80.2,74.8,30.07,South,178,5.0,10.2,84,0.00, ,,-99.99,VWS V12.07,2013-09-05 00:49:00,
2013-09-04 20:54:00,79.7,74.4,30.07,SSE,168,7.3,10.2,84,0.00, ,,-99.99,VWS V12.07,2013-09-05 00:54:00,
2013-09-04 20:59:00,80.1,74.9,30.08,South,184,5.2,10.2,84,0.00, ,,-99.99,VWS V12.07,2013-09-05 00:59:00,
2013-09-04 21:04:00,79.5,74.5,30.08,South,174,0.0,6.5,85,0.00, ,,-99.99,VWS V12.07,2013-09-05 01:04:00,
2013-09-04 21:09:00,79.9,74.9,30.08,South,174,0.0,6.5,85,0.00, ,,-99.99,VWS V12.07,2013-09-05 01:09:00,
2013-09-04 21:14:00,79.5,74.5,30.08,South,177,0.0,6.5,85,0.00, ,,-99.99,VWS V12.07,2013-09-05 01:14:00,
2013-09-04 21:19:00,79.5,74.3,30.08,South,177,6.3,7.4,84,0.00, ,,-99.99,VWS V12.07,2013-09-05 01:19:00,
2013-09-04 21:24:00,79.7,74.4,30.08,SSE,166,6.0,8.1,84,0.00, ,,-99.99,VWS V12.07,2013-09-05 01:24:00,
2013-09-04 21:29:00,79.8,74.5,30.08,South,177,7.2,8.1,84,0.00, ,,-99.99,VWS V12.07,2013-09-05 01:29:00,
2013-09-04 21:34:00,79.4,74.2,30.08,SE,130,3.5,9.4,84,0.00, ,,-99.99,VWS V12.07,2013-09-05 01:34:00,
2013-09-04 21:39:00,79.3,74.2,30.08,SSE,168,6.0,9.4,84,0.00, ,,-99.99,VWS V12.07,2013-09-05 01:39:00,
2013-09-04 21:44:00,79.2,74.2,30.08,SSE,161,4.7,8.1,85,0.00, ,,-99.99,VWS V12.07,2013-09-05 01:44:00,
2013-09-04 21:49:00,79.7,74.8,30.08,SSW,195,5.0,8.1,85,0.00, ,,-99.99,VWS V12.07,2013-09-05 01:49:00,
2013-09-04 21:54:00,79.5,74.7,30.08,South,185,6.4,8.1,85,0.00, ,,-99.99,VWS V12.07,2013-09-05 01:54:00,
2013-09-04 21:59:00,79.3,74.6,30.08,South,191,4.6,8.5,86,0.00, ,,-99.99,VWS V12.07,2013-09-05 01:59:00,
2013-09-04 22:04:00,79.2,74.5,30.08,SSW,202,2.5,6.8,86,0.00, ,,-99.99,VWS V12.07,2013-09-05 02:04:00,
2013-09-04 22:09:00,79.1,74.6,30.08,SSW,194,5.3,7.1,86,0.00, ,,-99.99,VWS V12.07,2013-09-05 02:09:00,
2013-09-04 22:14:00,79.0,74.5,30.08,SSW,199,5.3,8.1,86,0.00, ,,-99.99,VWS V12.07,2013-09-05 02:14:00,
2013-09-04 22:19:00,79.5,75.1,30.08,South,171,5.2,8.1,86,0.00, ,,-99.99,VWS V12.07,2013-09-05 02:19:00,
2013-09-04 22:24:00,79.3,75.0,30.08,SSE,152,0.0,6.5,87,0.00, ,,-99.99,VWS V12.07,2013-09-05 02:24:00,
2013-09-04 22:29:00,79.2,75.0,30.09,SSE,156,0.0,6.5,87,0.00, ,,-99.99,VWS V12.07,2013-09-05 02:29:00,
2013-09-04 22:34:00,79.2,75.0,30.09,South,191,6.8,6.9,87,0.00, ,,-99.99,VWS V12.07,2013-09-05 02:34:00,
2013-09-04 22:39:00,79.2,74.9,30.09,South,185,5.7,8.1,87,0.00, ,,-99.99,VWS V12.07,2013-09-05 02:39:00,
2013-09-04 22:44:00,79.1,74.9,30.09,SSW,192,4.3,7.3,87,0.00, ,,-99.99,VWS V12.07,2013-09-05 02:44:00,
2013-09-04 22:49:00,79.0,74.8,30.09,South,173,5.8,7.3,87,0.00, ,,-99.99,VWS V12.07,2013-09-05 02:49:00,
2013-09-04 22:54:00,79.3,75.1,30.08,South,174,4.5,7.3,87,0.00, ,,-99.99,VWS V12.07,2013-09-05 02:54:00,
2013-09-04 22:59:00,79.3,75.0,30.08,SSE,147,2.7,7.3,87,0.00, ,,-99.99,VWS V12.07,2013-09-05 02:59:00,
2013-09-04 23:04:00,79.3,75.1,30.09,South,174,6.3,8.1,87,0.00, ,,-99.99,VWS V12.07,2013-09-05 03:04:00,
2013-09-04 23:09:00,79.4,75.2,30.09,South,171,5.9,8.1,87,0.00, ,,-99.99,VWS V12.07,2013-09-05 03:09:00,
2013-09-04 23:14:00,79.3,75.3,30.08,SSE,156,4.2,8.1,88,0.00, ,,-99.99,VWS V12.07,2013-09-05 03:14:00,
2013-09-04 23:19:00,79.2,75.2,30.08,South,178,4.5,8.1,88,0.00, ,,-99.99,VWS V12.07,2013-09-05 03:19:00,
2013-09-04 23:24:00,79.4,75.5,30.09,South,180,5.3,7.6,88,0.00, ,,-99.99,VWS V12.07,2013-09-05 03:24:00,
2013-09-04 23:29:00,79.3,75.4,30.09,SSW,201,5.1,7.6,88,0.00, ,,-99.99,VWS V12.07,2013-09-05 03:29:00,
2013-09-04 23:34:00,79.3,75.3,30.08,South,174,0.0,7.6,88,0.00, ,,-99.99,VWS V12.07,2013-09-05 03:34:00,
2013-09-04 23:39:00,79.2,75.2,30.09,South,174,0.0,7.6,88,0.00, ,,-99.99,VWS V12.07,2013-09-05 03:39:00,
2013-09-04 23:44:00,78.7,74.7,30.09,South,174,0.0,0.0,88,0.00, ,,-99.99,VWS V12.07,2013-09-05 03:44:00,
2013-09-04 23:49:00,79.3,75.2,30.09,South,174,0.0,0.0,87,0.00, ,,-99.99,VWS V12.07,2013-09-05 03:49:00,
2013-09-04 23:54:00,79.2,75.1,30.09,South,174,0.0,0.0,87,0.00, ,,-99.99,VWS V12.07,2013-09-05 03:54:00,
2013-09-04 23:59:00,79.2,75.1,30.08,South,174,0.0,0.0,87,0.00, ,,-99.99,VWS V12.07,2013-09-05 03:59:00,